sensor_id;sensor_type;location;lat;lon;timestamp;pressure;altitude;pressure_sealevel;temperature;humidity
29569;BME280;16501;51.462;14.346;2023-04-25T00:01:53;99283.88;;;8.77;73.46
29569;BME280;16501;51.462;14.346;2023-04-25T00:04:18;99270.69;;;8.63;73.35
29569;BME280;16501;51.462;14.346;2023-04-25T00:06:43;99274.28;;;8.48;73.73
29569;BME280;16501;51.462;14.346;2023-04-25T00:09:09;99275.31;;;8.66;73.49
29569;BME280;16501;51.462;14.346;2023-04-25T00:11:35;99272.81;;;8.68;73.10
29569;BME280;16501;51.462;14.346;2023-04-25T00:14:00;99289.72;;;8.79;72.90
29569;BME280;16501;51.462;14.346;2023-04-25T00:16:27;99283.41;;;8.64;73.17
29569;BME280;16501;51.462;14.346;2023-04-25T00:18:54;99294.97;;;8.72;73.92
29569;BME280;16501;51.462;14.346;2023-04-25T00:21:20;99289.69;;;8.59;73.82
29569;BME280;16501;51.462;14.346;2023-04-25T00:23:46;99265.94;;;8.39;73.97
29569;BME280;16501;51.462;14.346;2023-04-25T00:26:11;99261.03;;;8.34;74.44
29569;BME280;16501;51.462;14.346;2023-04-25T00:28:37;99264.53;;;8.29;74.47
29569;BME280;16501;51.462;14.346;2023-04-25T00:31:03;99293.72;;;8.43;74.77
29569;BME280;16501;51.462;14.346;2023-04-25T00:33:28;99272.41;;;8.30;75.04
29569;BME280;16501;51.462;14.346;2023-04-25T00:35:53;99267.41;;;8.20;75.16
29569;BME280;16501;51.462;14.346;2023-04-25T00:38:19;99300.25;;;8.40;74.75
29569;BME280;16501;51.462;14.346;2023-04-25T00:40:44;99264.13;;;8.21;75.25
29569;BME280;16501;51.462;14.346;2023-04-25T00:43:09;99277.25;;;8.15;75.50
29569;BME280;16501;51.462;14.346;2023-04-25T00:45:38;99280.78;;;8.16;76.02
29569;BME280;16501;51.462;14.346;2023-04-25T00:48:04;99279.53;;;8.17;75.89
29569;BME280;16501;51.462;14.346;2023-04-25T00:50:30;99229.34;;;7.78;75.84
29569;BME280;16501;51.462;14.346;2023-04-25T00:52:55;99258.16;;;7.99;75.53
29569;BME280;16501;51.462;14.346;2023-04-25T00:55:21;99282.03;;;8.15;75.36
29569;BME280;16501;51.462;14.346;2023-04-25T00:57:46;99285.50;;;8.09;75.65
29569;BME280;16501;51.462;14.346;2023-04-25T01:00:12;99278.25;;;8.03;76.09
29569;BME280;16501;51.462;14.346;2023-04-25T01:02:40;99283.78;;;8.12;75.98
29569;BME280;16501;51.462;14.346;2023-04-25T01:05:07;99288.47;;;8.06;75.57
29569;BME280;16501;51.462;14.346;2023-04-25T01:07:34;99274.88;;;7.99;76.11
29569;BME280;16501;51.462;14.346;2023-04-25T01:09:59;99271.63;;;8.00;76.06
29569;BME280;16501;51.462;14.346;2023-04-25T01:12:24;99267.09;;;8.03;75.61
29569;BME280;16501;51.462;14.346;2023-04-25T01:14:50;99256.31;;;7.96;75.33
29569;BME280;16501;51.462;14.346;2023-04-25T01:17:17;99274.78;;;7.93;75.13
29569;BME280;16501;51.462;14.346;2023-04-25T01:19:43;99262.25;;;7.73;75.75
29569;BME280;16501;51.462;14.346;2023-04-25T01:22:09;99264.25;;;7.73;75.51
29569;BME280;16501;51.462;14.346;2023-04-25T01:24:35;99283.16;;;7.93;75.55
29569;BME280;16501;51.462;14.346;2023-04-25T01:27:01;99263.41;;;7.82;75.25
29569;BME280;16501;51.462;14.346;2023-04-25T01:29:28;99279.19;;;7.85;75.46
29569;BME280;16501;51.462;14.346;2023-04-25T01:31:53;99282.28;;;7.87;75.68
29569;BME280;16501;51.462;14.346;2023-04-25T01:34:19;99256.34;;;7.71;75.53
29569;BME280;16501;51.462;14.346;2023-04-25T01:36:45;99274.25;;;7.65;75.99
29569;BME280;16501;51.462;14.346;2023-04-25T01:39:12;99271.34;;;7.59;76.46
29569;BME280;16501;51.462;14.346;2023-04-25T01:41:37;99296.88;;;7.67;77.12
29569;BME280;16501;51.462;14.346;2023-04-25T01:44:03;99284.59;;;7.49;77.17
29569;BME280;16501;51.462;14.346;2023-04-25T01:46:29;99282.16;;;7.66;77.84
29569;BME280;16501;51.462;14.346;2023-04-25T01:48:54;99285.28;;;7.59;77.80
29569;BME280;16501;51.462;14.346;2023-04-25T01:51:20;99271.84;;;7.58;77.92
29569;BME280;16501;51.462;14.346;2023-04-25T01:53:45;99270.38;;;7.62;77.44
29569;BME280;16501;51.462;14.346;2023-04-25T01:56:10;99270.38;;;7.62;78.18
29569;BME280;16501;51.462;14.346;2023-04-25T01:58:36;99274.78;;;7.54;77.84
29569;BME280;16501;51.462;14.346;2023-04-25T02:01:01;99280.97;;;7.58;78.33
29569;BME280;16501;51.462;14.346;2023-04-25T02:03:26;99280.59;;;7.65;78.59
29569;BME280;16501;51.462;14.346;2023-04-25T02:05:51;99257.56;;;7.55;78.16
29569;BME280;16501;51.462;14.346;2023-04-25T02:08:17;99267.97;;;7.55;77.99
29569;BME280;16501;51.462;14.346;2023-04-25T02:10:43;99272.50;;;7.52;78.26
29569;BME280;16501;51.462;14.346;2023-04-25T02:13:08;99276.91;;;7.59;77.97
29569;BME280;16501;51.462;14.346;2023-04-25T02:15:34;99265.00;;;7.59;78.19
29569;BME280;16501;51.462;14.346;2023-04-25T02:17:59;99286.00;;;7.69;77.91
29569;BME280;16501;51.462;14.346;2023-04-25T02:20:29;99274.91;;;7.60;78.54
29569;BME280;16501;51.462;14.346;2023-04-25T02:22:55;99286.56;;;7.58;79.26
29569;BME280;16501;51.462;14.346;2023-04-25T02:25:21;99283.03;;;7.48;80.36
29569;BME280;16501;51.462;14.346;2023-04-25T02:27:47;99271.88;;;7.48;80.65
29569;BME280;16501;51.462;14.346;2023-04-25T02:30:13;99269.00;;;7.43;81.26
29569;BME280;16501;51.462;14.346;2023-04-25T02:32:39;99274.63;;;7.58;80.86
29569;BME280;16501;51.462;14.346;2023-04-25T02:35:05;99262.31;;;7.40;80.32
29569;BME280;16501;51.462;14.346;2023-04-25T02:37:31;99253.97;;;7.40;80.44
29569;BME280;16501;51.462;14.346;2023-04-25T02:39:57;99266.78;;;7.47;80.58
29569;BME280;16501;51.462;14.346;2023-04-25T02:42:22;99241.19;;;7.33;80.31
29569;BME280;16501;51.462;14.346;2023-04-25T02:44:47;99269.84;;;7.49;80.40
29569;BME280;16501;51.462;14.346;2023-04-25T02:47:12;99236.34;;;7.34;80.59
29569;BME280;16501;51.462;14.346;2023-04-25T02:49:38;99253.13;;;7.49;80.17
29569;BME280;16501;51.462;14.346;2023-04-25T02:52:03;99248.81;;;7.48;80.70
29569;BME280;16501;51.462;14.346;2023-04-25T02:54:28;99285.06;;;7.72;80.55
29569;BME280;16501;51.462;14.346;2023-04-25T02:56:54;99255.88;;;7.58;80.41
29569;BME280;16501;51.462;14.346;2023-04-25T02:59:19;99263.84;;;7.65;81.06
29569;BME280;16501;51.462;14.346;2023-04-25T03:01:45;99254.50;;;7.53;81.26
29569;BME280;16501;51.462;14.346;2023-04-25T03:04:10;99271.09;;;7.72;80.63
29569;BME280;16501;51.462;14.346;2023-04-25T03:06:35;99267.13;;;7.64;80.61
29569;BME280;16501;51.462;14.346;2023-04-25T03:09:00;99255.88;;;7.58;80.36
29569;BME280;16501;51.462;14.346;2023-04-25T03:11:26;99258.28;;;7.65;80.04
29569;BME280;16501;51.462;14.346;2023-04-25T03:13:52;99249.53;;;7.58;80.71
29569;BME280;16501;51.462;14.346;2023-04-25T03:16:17;99254.78;;;7.55;80.83
29569;BME280;16501;51.462;14.346;2023-04-25T03:18:42;99242.47;;;7.47;81.19
29569;BME280;16501;51.462;14.346;2023-04-25T03:21:08;99250.47;;;7.54;80.95
29569;BME280;16501;51.462;14.346;2023-04-25T03:23:33;99247.25;;;7.47;81.13
29569;BME280;16501;51.462;14.346;2023-04-25T03:25:58;99263.34;;;7.52;81.95
29569;BME280;16501;51.462;14.346;2023-04-25T03:28:24;99247.69;;;7.54;82.49
29569;BME280;16501;51.462;14.346;2023-04-25T03:30:49;99248.81;;;7.48;83.21
29569;BME280;16501;51.462;14.346;2023-04-25T03:33:14;99254.03;;;7.55;84.06
29569;BME280;16501;51.462;14.346;2023-04-25T03:35:40;99251.88;;;7.50;84.35
29569;BME280;16501;51.462;14.346;2023-04-25T03:38:05;99243.31;;;7.39;85.13
29569;BME280;16501;51.462;14.346;2023-04-25T03:40:30;99254.69;;;7.50;86.91
29569;BME280;16501;51.462;14.346;2023-04-25T03:42:56;99240.50;;;7.39;87.02
29569;BME280;16501;51.462;14.346;2023-04-25T03:45:21;99244.34;;;7.41;87.63
29569;BME280;16501;51.462;14.346;2023-04-25T03:47:46;99242.47;;;7.47;88.00
29569;BME280;16501;51.462;14.346;2023-04-25T03:50:11;99269.19;;;7.54;88.94
29569;BME280;16501;51.462;14.346;2023-04-25T03:52:37;99252.53;;;7.45;89.39
29569;BME280;16501;51.462;14.346;2023-04-25T03:55:02;99249.47;;;7.43;89.42
29569;BME280;16501;51.462;14.346;2023-04-25T03:57:27;99249.81;;;7.35;89.42
29569;BME280;16501;51.462;14.346;2023-04-25T03:59:53;99265.00;;;7.34;91.11
29569;BME280;16501;51.462;14.346;2023-04-25T04:02:18;99257.28;;;7.29;92.11
29569;BME280;16501;51.462;14.346;2023-04-25T04:04:43;99258.72;;;7.25;91.85
29569;BME280;16501;51.462;14.346;2023-04-25T04:07:09;99240.81;;;7.16;92.31
29569;BME280;16501;51.462;14.346;2023-04-25T04:09:35;99234.22;;;7.05;93.38
29569;BME280;16501;51.462;14.346;2023-04-25T04:12:00;99263.59;;;7.15;93.22
29569;BME280;16501;51.462;14.346;2023-04-25T04:14:28;99261.50;;;7.01;95.41
29569;BME280;16501;51.462;14.346;2023-04-25T04:16:53;99261.50;;;7.01;95.06
29569;BME280;16501;51.462;14.346;2023-04-25T04:19:18;99257.16;;;6.99;95.32
29569;BME280;16501;51.462;14.346;2023-04-25T04:21:44;99261.34;;;7.04;95.87
29569;BME280;16501;51.462;14.346;2023-04-25T04:24:09;99234.94;;;6.90;95.48
29569;BME280;16501;51.462;14.346;2023-04-25T04:26:35;99257.47;;;7.02;95.04
29569;BME280;16501;51.462;14.346;2023-04-25T04:29:02;99263.94;;;7.08;95.51
29569;BME280;16501;51.462;14.346;2023-04-25T04:31:27;99259.94;;;6.99;95.85
29569;BME280;16501;51.462;14.346;2023-04-25T04:33:53;99263.69;;;6.96;96.40
29569;BME280;16501;51.462;14.346;2023-04-25T04:36:18;99271.44;;;6.92;96.47
29569;BME280;16501;51.462;14.346;2023-04-25T04:38:45;99274.97;;;7.02;96.37
29569;BME280;16501;51.462;14.346;2023-04-25T04:41:10;99250.75;;;6.84;96.33
29569;BME280;16501;51.462;14.346;2023-04-25T04:43:35;99245.03;;;6.78;96.30
29569;BME280;16501;51.462;14.346;2023-04-25T04:46:01;99272.47;;;7.04;96.33
29569;BME280;16501;51.462;14.346;2023-04-25T04:48:28;99267.91;;;6.92;95.09
29569;BME280;16501;51.462;14.346;2023-04-25T04:50:53;99273.06;;;7.08;95.11
29569;BME280;16501;51.462;14.346;2023-04-25T04:53:19;99261.91;;;7.08;94.67
29569;BME280;16501;51.462;14.346;2023-04-25T04:55:44;99257.28;;;7.05;93.70
29569;BME280;16501;51.462;14.346;2023-04-25T04:58:09;99250.66;;;7.03;93.97
29569;BME280;16501;51.462;14.346;2023-04-25T05:00:35;99268.41;;;7.14;93.07
29569;BME280;16501;51.462;14.346;2023-04-25T05:03:00;99273.56;;;7.31;92.58
29569;BME280;16501;51.462;14.346;2023-04-25T05:05:26;99276.69;;;7.24;91.76
29569;BME280;16501;51.462;14.346;2023-04-25T05:07:51;99268.88;;;7.13;91.56
29569;BME280;16501;51.462;14.346;2023-04-25T05:10:19;99286.09;;;7.35;91.70
29569;BME280;16501;51.462;14.346;2023-04-25T05:12:45;99292.84;;;7.44;91.14
29569;BME280;16501;51.462;14.346;2023-04-25T05:15:11;99273.09;;;7.32;90.41
29569;BME280;16501;51.462;14.346;2023-04-25T05:17:36;99264.91;;;7.29;90.32
29569;BME280;16501;51.462;14.346;2023-04-25T05:20:02;99259.84;;;7.18;89.78
29569;BME280;16501;51.462;14.346;2023-04-25T05:22:27;99275.88;;;7.32;89.56
29569;BME280;16501;51.462;14.346;2023-04-25T05:24:53;99256.13;;;7.21;89.52
29569;BME280;16501;51.462;14.346;2023-04-25T05:27:18;99273.47;;;7.40;89.45
29569;BME280;16501;51.462;14.346;2023-04-25T05:29:44;99278.06;;;7.52;89.18
29569;BME280;16501;51.462;14.346;2023-04-25T05:32:09;99275.81;;;7.42;88.88
29569;BME280;16501;51.462;14.346;2023-04-25T05:34:35;99296.75;;;7.61;89.01
29569;BME280;16501;51.462;14.346;2023-04-25T05:37:00;99289.53;;;7.54;88.37
29569;BME280;16501;51.462;14.346;2023-04-25T05:39:25;99287.72;;;7.66;87.45
29569;BME280;16501;51.462;14.346;2023-04-25T05:41:51;99285.22;;;7.68;87.18
29569;BME280;16501;51.462;14.346;2023-04-25T05:44:16;99260.78;;;7.63;86.91
29569;BME280;16501;51.462;14.346;2023-04-25T05:46:42;99265.88;;;7.65;86.33
29569;BME280;16501;51.462;14.346;2023-04-25T05:49:07;99283.13;;;7.78;86.56
29569;BME280;16501;51.462;14.346;2023-04-25T05:51:32;99300.00;;;7.99;84.98
29569;BME280;16501;51.462;14.346;2023-04-25T05:53:58;99298.16;;;7.96;84.86
29569;BME280;16501;51.462;14.346;2023-04-25T05:56:23;99286.91;;;7.90;84.41
29569;BME280;16501;51.462;14.346;2023-04-25T05:58:48;99301.09;;;8.01;84.05
29569;BME280;16501;51.462;14.346;2023-04-25T06:01:14;99291.66;;;8.14;83.21
29569;BME280;16501;51.462;14.346;2023-04-25T06:03:39;99270.09;;;8.14;82.15
29569;BME280;16501;51.462;14.346;2023-04-25T06:06:07;99307.28;;;8.35;81.21
29569;BME280;16501;51.462;14.346;2023-04-25T06:08:33;99311.06;;;8.47;81.07
29569;BME280;16501;51.462;14.346;2023-04-25T06:10:58;99299.41;;;8.48;80.70
29569;BME280;16501;51.462;14.346;2023-04-25T06:13:23;99282.84;;;8.45;80.24
29569;BME280;16501;51.462;14.346;2023-04-25T06:15:48;99318.75;;;8.67;79.24
29569;BME280;16501;51.462;14.346;2023-04-25T06:18:14;99297.75;;;8.57;77.27
29569;BME280;16501;51.462;14.346;2023-04-25T06:20:39;99321.75;;;8.63;76.78
29569;BME280;16501;51.462;14.346;2023-04-25T06:23:04;99303.81;;;8.70;75.65
29569;BME280;16501;51.462;14.346;2023-04-25T06:25:30;99305.09;;;8.69;75.19
29569;BME280;16501;51.462;14.346;2023-04-25T06:27:55;99316.59;;;8.92;76.14
29569;BME280;16501;51.462;14.346;2023-04-25T06:30:20;99293.59;;;8.82;74.06
29569;BME280;16501;51.462;14.346;2023-04-25T06:32:49;99310.50;;;9.08;75.64
29569;BME280;16501;51.462;14.346;2023-04-25T06:35:15;99304.72;;;9.12;72.55
29569;BME280;16501;51.462;14.346;2023-04-25T06:37:40;99308.75;;;9.11;72.49
29569;BME280;16501;51.462;14.346;2023-04-25T06:40:06;99284.53;;;8.87;71.53
29569;BME280;16501;51.462;14.346;2023-04-25T06:42:31;99299.06;;;9.06;71.18
29569;BME280;16501;51.462;14.346;2023-04-25T06:44:56;99321.94;;;9.25;70.29
29569;BME280;16501;51.462;14.346;2023-04-25T06:47:22;99277.78;;;8.94;70.63
29569;BME280;16501;51.462;14.346;2023-04-25T06:49:47;99305.47;;;9.12;71.50
29569;BME280;16501;51.462;14.346;2023-04-25T06:52:12;99311.97;;;9.39;69.28
29569;BME280;16501;51.462;14.346;2023-04-25T06:54:37;99296.72;;;9.40;71.10
29569;BME280;16501;51.462;14.346;2023-04-25T06:57:03;99320.09;;;9.57;69.73
29569;BME280;16501;51.462;14.346;2023-04-25T06:59:28;99291.69;;;9.44;70.30
29569;BME280;16501;51.462;14.346;2023-04-25T07:01:53;99260.34;;;9.40;69.24
29569;BME280;16501;51.462;14.346;2023-04-25T07:04:18;99294.78;;;9.67;68.42
29569;BME280;16501;51.462;14.346;2023-04-25T07:06:44;99300.91;;;9.50;69.51
29569;BME280;16501;51.462;14.346;2023-04-25T07:09:10;99287.19;;;9.52;68.65
29569;BME280;16501;51.462;14.346;2023-04-25T07:11:35;99294.34;;;9.53;68.16
29569;BME280;16501;51.462;14.346;2023-04-25T07:14:01;99283.19;;;9.38;68.39
29569;BME280;16501;51.462;14.346;2023-04-25T07:16:26;99287.94;;;9.12;68.73
29569;BME280;16501;51.462;14.346;2023-04-25T07:18:51;99303.69;;;9.30;69.71
29569;BME280;16501;51.462;14.346;2023-04-25T07:21:16;99284.69;;;9.34;71.18
29569;BME280;16501;51.462;14.346;2023-04-25T07:23:41;99296.09;;;9.51;71.42
29569;BME280;16501;51.462;14.346;2023-04-25T07:26:07;99304.84;;;9.58;69.01
29569;BME280;16501;51.462;14.346;2023-04-25T07:28:32;99281.75;;;9.63;67.81
29569;BME280;16501;51.462;14.346;2023-04-25T07:30:58;99307.28;;;9.92;67.59
29569;BME280;16501;51.462;14.346;2023-04-25T07:33:23;99300.66;;;9.69;65.89
29569;BME280;16501;51.462;14.346;2023-04-25T07:35:48;99295.53;;;9.67;66.98
29569;BME280;16501;51.462;14.346;2023-04-25T07:38:14;99303.84;;;9.82;67.05
29569;BME280;16501;51.462;14.346;2023-04-25T07:40:39;99312.44;;;9.99;67.39
29569;BME280;16501;51.462;14.346;2023-04-25T07:43:04;99319.31;;;9.77;67.36
29569;BME280;16501;51.462;14.346;2023-04-25T07:45:30;99319.75;;;9.70;69.44
29569;BME280;16501;51.462;14.346;2023-04-25T07:47:55;99320.50;;;9.71;67.88
29569;BME280;16501;51.462;14.346;2023-04-25T07:50:21;99312.81;;;9.66;69.77
29569;BME280;16501;51.462;14.346;2023-04-25T07:52:46;99314.63;;;9.89;66.96
29569;BME280;16501;51.462;14.346;2023-04-25T07:55:11;99302.63;;;10.09;65.62
29569;BME280;16501;51.462;14.346;2023-04-25T07:57:36;99310.22;;;10.29;65.44
29569;BME280;16501;51.462;14.346;2023-04-25T08:00:03;99313.81;;;10.56;66.13
29569;BME280;16501;51.462;14.346;2023-04-25T08:02:29;99320.06;;;10.71;65.58
29569;BME280;16501;51.462;14.346;2023-04-25T08:04:55;99303.56;;;10.85;63.23
29569;BME280;16501;51.462;14.346;2023-04-25T08:07:20;99312.88;;;10.38;62.84
29569;BME280;16501;51.462;14.346;2023-04-25T08:09:46;99328.09;;;10.58;63.13
29569;BME280;16501;51.462;14.346;2023-04-25T08:12:11;99297.38;;;10.69;63.24
29569;BME280;16501;51.462;14.346;2023-04-25T08:14:36;99314.97;;;10.75;62.93
29569;BME280;16501;51.462;14.346;2023-04-25T08:17:03;99332.75;;;10.67;62.40
29569;BME280;16501;51.462;14.346;2023-04-25T08:19:30;99328.66;;;10.94;62.25
29569;BME280;16501;51.462;14.346;2023-04-25T08:21:56;99338.25;;;10.82;60.18
29569;BME280;16501;51.462;14.346;2023-04-25T08:24:22;99308.81;;;10.40;61.46
29569;BME280;16501;51.462;14.346;2023-04-25T08:26:48;99317.84;;;10.29;62.29
29569;BME280;16501;51.462;14.346;2023-04-25T08:29:13;99340.47;;;10.46;64.05
29569;BME280;16501;51.462;14.346;2023-04-25T08:31:38;99344.91;;;10.58;63.53
29569;BME280;16501;51.462;14.346;2023-04-25T08:34:04;99314.19;;;10.69;63.12
29569;BME280;16501;51.462;14.346;2023-04-25T08:36:29;99326.38;;;10.98;59.59
29569;BME280;16501;51.462;14.346;2023-04-25T08:38:54;99331.81;;;10.75;58.51
29569;BME280;16501;51.462;14.346;2023-04-25T08:41:20;99340.91;;;10.97;59.00
29569;BME280;16501;51.462;14.346;2023-04-25T08:43:48;99353.25;;;10.79;60.56
29569;BME280;16501;51.462;14.346;2023-04-25T08:46:17;99341.56;;;10.54;61.22
29569;BME280;16501;51.462;14.346;2023-04-25T08:48:44;99358.25;;;10.69;60.53
29569;BME280;16501;51.462;14.346;2023-04-25T08:51:18;99361.50;;;10.62;59.15
29569;BME280;16501;51.462;14.346;2023-04-25T08:53:49;99338.66;;;11.01;59.08
29569;BME280;16501;51.462;14.346;2023-04-25T08:56:16;99353.53;;;11.56;59.80
29569;BME280;16501;51.462;14.346;2023-04-25T08:58:43;99344.13;;;11.21;58.57
29569;BME280;16501;51.462;14.346;2023-04-25T09:01:10;99331.81;;;10.75;58.28
29569;BME280;16501;51.462;14.346;2023-04-25T09:03:36;99358.28;;;10.74;58.51
29569;BME280;16501;51.462;14.346;2023-04-25T09:06:01;99357.97;;;10.67;58.47
29569;BME280;16501;51.462;14.346;2023-04-25T09:08:27;99345.00;;;10.43;59.13
29569;BME280;16501;51.462;14.346;2023-04-25T09:10:52;99358.13;;;10.52;60.78
29569;BME280;16501;51.462;14.346;2023-04-25T09:13:24;99375.03;;;10.63;60.18
29569;BME280;16501;51.462;14.346;2023-04-25T09:15:52;99361.56;;;10.41;60.49
29569;BME280;16501;51.462;14.346;2023-04-25T09:18:27;99378.31;;;10.62;61.87
29569;BME280;16501;51.462;14.346;2023-04-25T09:20:55;99358.53;;;10.45;61.14
29569;BME280;16501;51.462;14.346;2023-04-25T09:23:22;99368.44;;;10.40;60.28
29569;BME280;16501;51.462;14.346;2023-04-25T09:25:52;99394.25;;;10.50;61.05
29569;BME280;16501;51.462;14.346;2023-04-25T09:28:24;99372.69;;;10.15;62.31
29569;BME280;16501;51.462;14.346;2023-04-25T09:30:55;99392.56;;;10.58;65.80
29569;BME280;16501;51.462;14.346;2023-04-25T09:33:30;99402.34;;;10.42;62.20
29569;BME280;16501;51.462;14.346;2023-04-25T09:36:04;99391.44;;;10.50;63.70
29569;BME280;16501;51.462;14.346;2023-04-25T09:38:31;99387.41;;;10.30;61.91
29569;BME280;16501;51.462;14.346;2023-04-25T09:40:57;99381.66;;;10.40;63.16
29569;BME280;16501;51.462;14.346;2023-04-25T09:43:37;99385.16;;;10.34;61.82
29569;BME280;16501;51.462;14.346;2023-04-25T09:46:09;99397.94;;;10.35;60.33
29569;BME280;16501;51.462;14.346;2023-04-25T09:48:34;99368.16;;;10.17;61.21
29569;BME280;16501;51.462;14.346;2023-04-25T09:51:13;99399.47;;;10.36;61.84
29569;BME280;16501;51.462;14.346;2023-04-25T09:53:41;99399.75;;;10.38;61.69
29569;BME280;16501;51.462;14.346;2023-04-25T09:56:09;99406.56;;;10.32;64.11
29569;BME280;16501;51.462;14.346;2023-04-25T09:58:37;99415.72;;;10.32;64.15
29569;BME280;16501;51.462;14.346;2023-04-25T10:01:05;99408.13;;;10.18;63.87
29569;BME280;16501;51.462;14.346;2023-04-25T10:03:31;99409.25;;;10.26;64.27
29569;BME280;16501;51.462;14.346;2023-04-25T10:05:59;99405.78;;;10.31;63.21
29569;BME280;16501;51.462;14.346;2023-04-25T10:08:33;99409.81;;;10.30;62.76
29569;BME280;16501;51.462;14.346;2023-04-25T10:11:00;99422.56;;;10.52;63.67
29569;BME280;16501;51.462;14.346;2023-04-25T10:13:28;99402.44;;;10.53;63.40
29569;BME280;16501;51.462;14.346;2023-04-25T10:15:54;99389.44;;;10.50;63.12
29569;BME280;16501;51.462;14.346;2023-04-25T10:18:20;99414.38;;;10.48;62.30
29569;BME280;16501;51.462;14.346;2023-04-25T10:20:45;99424.25;;;10.44;63.14
29569;BME280;16501;51.462;14.346;2023-04-25T10:23:14;99408.84;;;10.13;63.12
29569;BME280;16501;51.462;14.346;2023-04-25T10:25:41;99411.09;;;10.09;63.73
29569;BME280;16501;51.462;14.346;2023-04-25T10:28:06;99415.56;;;10.00;63.65
29569;BME280;16501;51.462;14.346;2023-04-25T10:30:31;99422.31;;;10.09;65.30
29569;BME280;16501;51.462;14.346;2023-04-25T10:32:58;99417.50;;;9.94;65.32
29569;BME280;16501;51.462;14.346;2023-04-25T10:35:27;99433.13;;;10.01;65.34
29569;BME280;16501;51.462;14.346;2023-04-25T10:38:00;99438.75;;;10.01;67.16
29569;BME280;16501;51.462;14.346;2023-04-25T10:40:27;99430.91;;;9.85;68.65
29569;BME280;16501;51.462;14.346;2023-04-25T10:42:53;99419.91;;;9.81;69.76
29569;BME280;16501;51.462;14.346;2023-04-25T10:45:19;99412.06;;;9.85;70.00
29569;BME280;16501;51.462;14.346;2023-04-25T10:47:45;99429.22;;;10.13;70.26
29569;BME280;16501;51.462;14.346;2023-04-25T10:50:11;99396.56;;;10.31;71.16
29569;BME280;16501;51.462;14.346;2023-04-25T10:52:38;99433.50;;;10.50;66.98
29569;BME280;16501;51.462;14.346;2023-04-25T10:55:05;99407.22;;;10.47;67.99
29569;BME280;16501;51.462;14.346;2023-04-25T10:57:37;99435.66;;;10.61;66.97
29569;BME280;16501;51.462;14.346;2023-04-25T11:00:13;99432.34;;;10.62;66.63
29569;BME280;16501;51.462;14.346;2023-04-25T11:02:53;99418.22;;;10.51;67.47
29569;BME280;16501;51.462;14.346;2023-04-25T11:05:33;99432.56;;;10.85;66.46
29569;BME280;16501;51.462;14.346;2023-04-25T11:07:59;99400.03;;;10.67;65.70
29569;BME280;16501;51.462;14.346;2023-04-25T11:10:28;99405.09;;;10.36;64.95
29569;BME280;16501;51.462;14.346;2023-04-25T11:12:54;99433.44;;;10.44;65.54
29569;BME280;16501;51.462;14.346;2023-04-25T11:15:20;99429.09;;;10.43;65.77
29569;BME280;16501;51.462;14.346;2023-04-25T11:17:45;99455.00;;;10.59;65.25
29569;BME280;16501;51.462;14.346;2023-04-25T11:20:14;99422.72;;;10.43;64.83
29569;BME280;16501;51.462;14.346;2023-04-25T11:22:41;99415.16;;;10.49;65.32
29569;BME280;16501;51.462;14.346;2023-04-25T11:25:11;99445.31;;;10.60;66.04
29569;BME280;16501;51.462;14.346;2023-04-25T11:27:49;99442.84;;;10.67;65.39
29569;BME280;16501;51.462;14.346;2023-04-25T11:30:15;99436.88;;;10.54;65.83
29569;BME280;16501;51.462;14.346;2023-04-25T11:32:41;99436.31;;;10.29;63.92
29569;BME280;16501;51.462;14.346;2023-04-25T11:35:07;99463.22;;;10.42;64.68
29569;BME280;16501;51.462;14.346;2023-04-25T11:37:33;99480.00;;;10.21;67.42
29569;BME280;16501;51.462;14.346;2023-04-25T11:40:01;99440.81;;;9.65;70.17
29569;BME280;16501;51.462;14.346;2023-04-25T11:42:27;99460.09;;;9.63;74.16
29569;BME280;16501;51.462;14.346;2023-04-25T11:44:52;99498.06;;;9.49;79.86
29569;BME280;16501;51.462;14.346;2023-04-25T11:47:17;99492.19;;;9.32;83.03
29569;BME280;16501;51.462;14.346;2023-04-25T11:49:43;99487.28;;;9.27;91.01
29569;BME280;16501;51.462;14.346;2023-04-25T11:52:08;99476.25;;;9.38;93.83
29569;BME280;16501;51.462;14.346;2023-04-25T11:54:37;99473.06;;;9.46;92.90
29569;BME280;16501;51.462;14.346;2023-04-25T11:57:03;99471.59;;;9.50;90.76
29569;BME280;16501;51.462;14.346;2023-04-25T11:59:28;99495.31;;;9.70;86.98
29569;BME280;16501;51.462;14.346;2023-04-25T12:01:54;99491.38;;;9.61;85.05
29569;BME280;16501;51.462;14.346;2023-04-25T12:04:26;99496.13;;;9.55;81.65
29569;BME280;16501;51.462;14.346;2023-04-25T12:06:55;99486.28;;;9.45;79.41
29569;BME280;16501;51.462;14.346;2023-04-25T12:09:38;99490.88;;;9.63;76.60
29569;BME280;16501;51.462;14.346;2023-04-25T12:12:04;99498.00;;;9.79;78.22
29569;BME280;16501;51.462;14.346;2023-04-25T12:14:33;99467.59;;;9.72;74.35
29569;BME280;16501;51.462;14.346;2023-04-25T12:17:02;99506.41;;;9.79;68.62
29569;BME280;16501;51.462;14.346;2023-04-25T12:19:34;99505.25;;;9.71;69.24
29569;BME280;16501;51.462;14.346;2023-04-25T12:22:01;99508.91;;;9.77;69.98
29569;BME280;16501;51.462;14.346;2023-04-25T12:24:28;99517.63;;;9.79;68.94
29569;BME280;16501;51.462;14.346;2023-04-25T12:26:58;99514.13;;;9.84;70.10
29569;BME280;16501;51.462;14.346;2023-04-25T12:29:26;99510.00;;;9.65;67.76
29569;BME280;16501;51.462;14.346;2023-04-25T12:31:52;99510.19;;;9.76;69.84
29569;BME280;16501;51.462;14.346;2023-04-25T12:34:21;99519.59;;;9.93;67.98
29569;BME280;16501;51.462;14.346;2023-04-25T12:36:47;99504.31;;;9.74;67.15
29569;BME280;16501;51.462;14.346;2023-04-25T12:39:20;99532.16;;;9.83;64.00
29569;BME280;16501;51.462;14.346;2023-04-25T12:41:50;99510.59;;;9.69;63.90
29569;BME280;16501;51.462;14.346;2023-04-25T12:44:15;99523.03;;;9.68;64.31
29569;BME280;16501;51.462;14.346;2023-04-25T12:46:41;99500.25;;;9.60;66.42
29569;BME280;16501;51.462;14.346;2023-04-25T12:49:07;99520.72;;;9.66;65.78
29569;BME280;16501;51.462;14.346;2023-04-25T12:51:33;99531.06;;;9.60;64.79
29569;BME280;16501;51.462;14.346;2023-04-25T12:53:59;99523.03;;;9.68;66.54